James Turecamo — WDC7565 — position and weather

sailwx.info

Track history (hours):
 
Tides and Currents Weather Stations Pressure Air Temp Water Temp Dewpoint Dewpoint Depression Visibility Wind Speed Wind Dir Waves Ship Positions

James Turecamo

Owner: Moran Towing Corporation, New Canaan, CT. More information available from US FCC via Universal Licensing System and Coast Guard Vessel Documentation Center.

Last reported at 2017-Mar-24 05:33 UTC. Time now 2017-Mar-24 06:16 UTC.
Position N 40°38' W 074°08'.

Length 30 m; draft 4.2 m.

Type: Tug. MMSI: 367073380.

Date/timePositionNaut miles runAvg speedWind from/ knotsBaromVisibWave heightAir tempDewpointWater temp
2017-Mar-24 05:33N 40°38' W 074°08'0 0.0
2017-Mar-24 04:30N 40°38' W 074°08'3 2.9
2017-Mar-24 03:33N 40°39' W 074°11'3 3.2
2017-Mar-24 02:29N 40°35' W 074°12'5 5.2
2017-Mar-24 01:33N 40°38' W 074°08'0 0.0
2017-Mar-24 00:33N 40°38' W 074°08'0 0.0
2017-Mar-23 23:33N 40°38' W 074°08'0 0.0
2017-Mar-23 22:33N 40°38' W 074°08'0 0.0
2017-Mar-23 21:33N 40°38' W 074°08'0 0.0
2017-Mar-23 20:33N 40°38' W 074°08'0 0.0
2017-Mar-23 19:33N 40°38' W 074°08'0 0.0
2017-Mar-23 18:33N 40°38' W 074°08'0 0.0
2017-Mar-23 17:33N 40°38' W 074°08'0 0.0
2017-Mar-23 16:33N 40°38' W 074°08'0 0.0
2017-Mar-23 15:33N 40°38' W 074°08'0 0.0
2017-Mar-23 14:33N 40°38' W 074°08'0 0.0
2017-Mar-23 12:32N 40°38' W 074°08'0 0.0
2017-Mar-23 02:33N 40°39' W 074°08'2 1.9
2017-Mar-23 01:33N 40°40' W 074°08'2 1.0
2017-Mar-22 23:33N 40°38' W 074°08'5 4.9
2017-Mar-22 22:33N 40°35' W 074°13'1 0.5
2017-Mar-22 19:27N 40°36' W 074°12'4 2.0
2017-Mar-22 17:28N 40°38' W 074°08'0 0.0
2017-Mar-22 16:10N 40°38' W 074°08'0 0.0
2017-Mar-22 15:32N 40°38' W 074°08'0 0.0
2017-Mar-22 12:17N 40°38' W 074°08'0 0.0
2017-Mar-22 11:11N 40°38' W 074°08'0 0.0
2017-Mar-22 10:32N 40°38' W 074°08'0 0.0
2017-Mar-22 09:33N 40°38' W 074°08'0 0.0
2017-Mar-22 06:23N 40°38' W 074°08'0 0.4
2017-Mar-22 05:33N 40°39' W 074°07'4 3.8
2017-Mar-22 04:33N 40°38' W 074°12'3 3.5
2017-Mar-22 03:33N 40°38' W 074°08'0 0.0
2017-Mar-22 02:33N 40°38' W 074°08'0 0.0
2017-Mar-22 00:20N 40°38' W 074°08'0 0.0
2017-Mar-21 23:25N 40°38' W 074°08'0 0.0
2017-Mar-21 22:31N 40°38' W 074°08'0 0.0
2017-Mar-21 21:29N 40°38' W 074°08'0 0.0
2017-Mar-21 20:27N 40°38' W 074°08'0 0.0
2017-Mar-21 19:33N 40°38' W 074°08'0 0.0
2017-Mar-21 18:29N 40°38' W 074°08'1 1.6
2017-Mar-21 17:33N 40°39' W 074°06'1 0.7
2017-Mar-21 15:26N 40°38' W 074°08'0 0.0
2017-Mar-21 14:31N 40°38' W 074°08'0 0.0
2017-Mar-21 12:24N 40°38' W 074°08'0 0.0
2017-Mar-21 11:32N 40°38' W 074°08'0 0.0
2017-Mar-21 08:06N 40°38' W 074°08'1 1.3
2017-Mar-21 07:33N 40°39' W 074°07'1 0.7
2017-Mar-21 06:33N 40°39' W 074°06'1 0.6
2017-Mar-21 04:12N 40°38' W 074°08'0 0.0
2017-Mar-21 01:21N 40°38' W 074°08'0 0.0
2017-Mar-21 00:33N 40°38' W 074°08'0 0.0
2017-Mar-20 23:19N 40°38' W 074°08'0 0.0
2017-Mar-20 22:32N 40°38' W 074°08'0 0.0
2017-Mar-20 21:33N 40°38' W 074°08'0 0.0
2017-Mar-20 20:33N 40°38' W 074°08'0 0.0
2017-Mar-20 16:32N 40°38' W 074°08'0 0.0
2017-Mar-20 15:31N 40°38' W 074°08'0 0.0
2017-Mar-20 14:32N 40°38' W 074°08'4 3.6
2017-Mar-20 13:33N 40°40' W 074°03'4 3.4
2017-Mar-20 12:31N 40°38' W 074°08'0 0.0
2017-Mar-20 11:32N 40°38' W 074°08'0 0.0
2017-Mar-20 10:31N 40°38' W 074°08'0 0.0
2017-Mar-20 09:33N 40°38' W 074°08'0 0.0
2017-Mar-20 08:33N 40°38' W 074°08'0 0.0
2017-Mar-20 07:32N 40°38' W 074°08'0 0.0
2017-Mar-20 06:33N 40°38' W 074°08'3 2.7
2017-Mar-20 05:33N 40°41' W 074°08'3 2.5
2017-Mar-20 04:33N 40°39' W 074°08'0 0.2
2017-Mar-20 03:33N 40°38' W 074°08'0 0.0
2017-Mar-20 02:32N 40°38' W 074°08'0 0.0
2017-Mar-20 01:33N 40°38' W 074°08'0 0.0
2017-Mar-20 00:17N 40°38' W 074°08'0 0.0
2017-Mar-19 23:33N 40°38' W 074°08'3 3.1
2017-Mar-19 22:33N 40°38' W 074°04'0 0.4
2017-Mar-19 21:33N 40°37' W 074°04'0 0.2
2017-Mar-19 20:33N 40°37' W 074°03'3 2.6
2017-Mar-19 19:33N 40°40' W 074°04'0 0.0
2017-Mar-19 18:33N 40°40' W 074°04'1 0.7
2017-Mar-19 17:33N 40°39' W 074°05'1 1.4
2017-Mar-19 16:33N 40°39' W 074°03'5 4.7
2017-Mar-19 15:33N 40°41' W 074°09'3 0.5
2017-Mar-19 10:33N 40°38' W 074°08'3 2.6
2017-Mar-19 09:33N 40°41' W 074°08'0 0.3
2017-Mar-19 08:33N 40°41' W 074°09'3 2.7
2017-Mar-19 07:33N 40°39' W 074°06'3 2.5
2017-Mar-19 06:33N 40°41' W 074°04'4 3.6
2017-Mar-19 05:33N 40°38' W 074°08'5 1.6
2017-Mar-19 02:24N 40°35' W 074°13'4 5.3
2017-Mar-19 01:34N 40°39' W 074°10'3 3.0
2017-Mar-19 00:33N 40°42' W 074°08'3 3.1
2017-Mar-18 23:32N 40°38' W 074°08'0 0.0
2017-Mar-18 22:33N 40°38' W 074°08'0 0.0
2017-Mar-18 21:30N 40°38' W 074°08'2 1.7
2017-Mar-18 20:33N 40°39' W 074°10'1 0.8
2017-Mar-18 19:32N 40°39' W 074°09'1 0.5
2017-Mar-18 18:04N 40°38' W 074°08'0 0.0
2017-Mar-18 17:31N 40°38' W 074°08'0 0.0
2017-Mar-18 16:32N 40°38' W 074°08'0 0.0
2017-Mar-18 15:33N 40°38' W 074°08'0 0.1
2017-Mar-18 14:31N 40°38' W 074°08'0 0.0
2017-Mar-18 13:33N 40°38' W 074°08'0 0.0
2017-Mar-18 12:33N 40°38' W 074°08'0 0.0
2017-Mar-18 11:33N 40°38' W 074°08'0 0.0
2017-Mar-18 10:33N 40°38' W 074°08'0 0.0
2017-Mar-18 09:33N 40°38' W 074°08'0 0.0
2017-Mar-18 08:33N 40°38' W 074°08'0 0.0
2017-Mar-18 07:33N 40°38' W 074°08'0 0.0
2017-Mar-18 06:22N 40°38' W 074°08'0 0.0
2017-Mar-18 05:33N 40°38' W 074°08'0 0.0
2017-Mar-18 04:33N 40°38' W 074°08'0 0.0
2017-Mar-18 03:17N 40°38' W 074°08'0 0.0
2017-Mar-18 02:34N 40°38' W 074°08'1 1.3
2017-Mar-18 01:33N 40°40' W 074°09'5 4.6
2017-Mar-18 00:33N 40°38' W 074°03'4 1.6
2017-Mar-17 22:15N 40°38' W 074°08'0 0.0
2017-Mar-17 19:24N 40°38' W 074°08'0 0.0
2017-Mar-17 18:33N 40°38' W 074°08'0 0.0
2017-Mar-17 16:27N 40°38' W 074°08'0 0.0
2017-Mar-17 15:33N 40°38' W 074°08'0 0.0
2017-Mar-17 14:33N 40°38' W 074°08'0 0.0
2017-Mar-17 13:24N 40°38' W 074°08'0 0.0
2017-Mar-17 12:30N 40°38' W 074°08'1 1.1
2017-Mar-17 11:33N 40°39' W 074°09'2 1.9
2017-Mar-17 10:33N 40°41' W 074°09'2 2.4
2017-Mar-17 09:33N 40°39' W 074°09'1 0.6
2017-Mar-17 08:30N 40°38' W 074°08'0 0.0
2017-Mar-17 07:33N 40°38' W 074°08'0 0.0
2017-Mar-17 06:27N 40°38' W 074°08'0 0.0
2017-Mar-17 05:33N 40°38' W 074°08'0 0.0
2017-Mar-17 04:30N 40°38' W 074°08'3 3.1
2017-Mar-17 03:33N 40°38' W 074°12'1 0.6
2017-Mar-17 02:31N 40°38' W 074°12'3 3.2
2017-Mar-17 01:29N 40°38' W 074°08'0 0.0
2017-Mar-17 00:26N 40°38' W 074°08'0 0.0
2017-Mar-16 23:26N 40°38' W 074°08'0 0.0
2017-Mar-16 22:32N 40°38' W 074°08'0 0.0
2017-Mar-16 21:29N 40°38' W 074°08'0 0.0
2017-Mar-16 20:26N 40°38' W 074°08'0 0.0
2017-Mar-16 19:26N 40°38' W 074°08'0 0.0
2017-Mar-16 18:32N 40°38' W 074°08'0 0.0
2017-Mar-16 17:32N 40°38' W 074°08'0 0.0
2017-Mar-16 16:32N 40°38' W 074°08'0 0.0
2017-Mar-16 15:28N 40°38' W 074°08'0 0.0
2017-Mar-16 14:31N 40°38' W 074°08'0 0.0
2017-Mar-16 13:31N 40°38' W 074°08'1 0.8
2017-Mar-16 12:33N 40°39' W 074°09'3 2.5
2017-Mar-16 11:30N 40°38' W 074°12'3 1.1
2017-Mar-16 08:33N 40°38' W 074°08'0 0.0
2017-Mar-16 07:33N 40°38' W 074°08'0 0.0
2017-Mar-16 06:33N 40°38' W 074°08'0 0.0
2017-Mar-16 05:33N 40°38' W 074°08'0 0.0
2017-Mar-16 04:33N 40°38' W 074°08'0 0.0
2017-Mar-16 03:30N 40°38' W 074°08'4 4.3
2017-Mar-16 02:33N 40°40' W 074°03'4 1.8
2017-Mar-16 00:21N 40°38' W 074°08'0 0.0
2017-Mar-15 23:27N 40°38' W 074°08'0 0.0
2017-Mar-15 22:30N 40°38' W 074°08'0 0.0
2017-Mar-15 21:15N 40°38' W 074°08'0 0.0
2017-Mar-15 17:30N 40°38' W 074°08'0 0.0
2017-Mar-15 16:14N 40°38' W 074°08'0 0.0
2017-Mar-15 00:14N 40°38' W 074°08'0 0.0
2017-Mar-14 23:29N 40°38' W 074°08'0 0.0
2017-Mar-14 22:32N 40°38' W 074°08'0 0.0
2017-Mar-14 21:32N 40°38' W 074°08'0 0.0
2017-Mar-14 20:26N 40°38' W 074°08'0 0.0
2017-Mar-14 19:32N 40°38' W 074°08'0 0.0
2017-Mar-14 18:26N 40°38' W 074°08'0 0.0
2017-Mar-14 17:20N 40°38' W 074°08'0 0.0
2017-Mar-14 16:29N 40°38' W 074°08'0 0.0
2017-Mar-14 14:29N 40°38' W 074°08'0 0.0
2017-Mar-14 12:29N 40°38' W 074°08'0 0.0
2017-Mar-14 11:25N 40°38' W 074°08'0 0.0
2017-Mar-14 10:28N 40°38' W 074°08'0 0.0
2017-Mar-14 09:31N 40°38' W 074°08'0 0.0
2017-Mar-14 08:19N 40°38' W 074°08'0 0.0
2017-Mar-14 07:28N 40°38' W 074°08'0 0.0
2017-Mar-14 06:31N 40°38' W 074°08'  
Track history (hours):
 
Tides and Currents Weather Stations Pressure Air Temp Water Temp Dewpoint Dewpoint Depression Visibility Wind Speed Wind Dir Waves Ship Positions

James Turecamo

Owner: Moran Towing Corporation, New Canaan, CT. More information available from US FCC via Universal Licensing System and Coast Guard Vessel Documentation Center.

Last reported at 2017-Mar-24 05:33 UTC. Time now 2017-Mar-24 06:16 UTC.
Position N 40°38' W 074°08'.

Length 30 m; draft 4.2 m.

Type: Tug. MMSI: 367073380.

Date/timePositionNaut miles runAvg speedWind from/ knotsBaromVisibWave heightAir tempDewpointWater temp
2017-Mar-24 05:33N 40°38' W 074°08'0 0.0
2017-Mar-24 04:30N 40°38' W 074°08'3 2.9
2017-Mar-24 03:33N 40°39' W 074°11'3 3.2
2017-Mar-24 02:29N 40°35' W 074°12'5 5.2
2017-Mar-24 01:33N 40°38' W 074°08'0 0.0
2017-Mar-24 00:33N 40°38' W 074°08'0 0.0
2017-Mar-23 23:33N 40°38' W 074°08'0 0.0
2017-Mar-23 22:33N 40°38' W 074°08'0 0.0
2017-Mar-23 21:33N 40°38' W 074°08'0 0.0
2017-Mar-23 20:33N 40°38' W 074°08'0 0.0
2017-Mar-23 19:33N 40°38' W 074°08'0 0.0
2017-Mar-23 18:33N 40°38' W 074°08'0 0.0
2017-Mar-23 17:33N 40°38' W 074°08'0 0.0
2017-Mar-23 16:33N 40°38' W 074°08'0 0.0
2017-Mar-23 15:33N 40°38' W 074°08'0 0.0
2017-Mar-23 14:33N 40°38' W 074°08'0 0.0
2017-Mar-23 12:32N 40°38' W 074°08'0 0.0
2017-Mar-23 02:33N 40°39' W 074°08'2 1.9
2017-Mar-23 01:33N 40°40' W 074°08'2 1.0
2017-Mar-22 23:33N 40°38' W 074°08'5 4.9
2017-Mar-22 22:33N 40°35' W 074°13'1 0.5
2017-Mar-22 19:27N 40°36' W 074°12'4 2.0
2017-Mar-22 17:28N 40°38' W 074°08'0 0.0
2017-Mar-22 16:10N 40°38' W 074°08'0 0.0
2017-Mar-22 15:32N 40°38' W 074°08'0 0.0
2017-Mar-22 12:17N 40°38' W 074°08'0 0.0
2017-Mar-22 11:11N 40°38' W 074°08'0 0.0
2017-Mar-22 10:32N 40°38' W 074°08'0 0.0
2017-Mar-22 09:33N 40°38' W 074°08'0 0.0
2017-Mar-22 06:23N 40°38' W 074°08'0 0.4
2017-Mar-22 05:33N 40°39' W 074°07'4 3.8
2017-Mar-22 04:33N 40°38' W 074°12'3 3.5
2017-Mar-22 03:33N 40°38' W 074°08'0 0.0
2017-Mar-22 02:33N 40°38' W 074°08'0 0.0
2017-Mar-22 00:20N 40°38' W 074°08'0 0.0
2017-Mar-21 23:25N 40°38' W 074°08'0 0.0
2017-Mar-21 22:31N 40°38' W 074°08'0 0.0
2017-Mar-21 21:29N 40°38' W 074°08'0 0.0
2017-Mar-21 20:27N 40°38' W 074°08'0 0.0
2017-Mar-21 19:33N 40°38' W 074°08'0 0.0
2017-Mar-21 18:29N 40°38' W 074°08'1 1.6
2017-Mar-21 17:33N 40°39' W 074°06'1 0.7
2017-Mar-21 15:26N 40°38' W 074°08'0 0.0
2017-Mar-21 14:31N 40°38' W 074°08'0 0.0
2017-Mar-21 12:24N 40°38' W 074°08'0 0.0
2017-Mar-21 11:32N 40°38' W 074°08'0 0.0
2017-Mar-21 08:06N 40°38' W 074°08'1 1.3
2017-Mar-21 07:33N 40°39' W 074°07'1 0.7
2017-Mar-21 06:33N 40°39' W 074°06'1 0.6
2017-Mar-21 04:12N 40°38' W 074°08'0 0.0
2017-Mar-21 01:21N 40°38' W 074°08'0 0.0
2017-Mar-21 00:33N 40°38' W 074°08'0 0.0
2017-Mar-20 23:19N 40°38' W 074°08'0 0.0
2017-Mar-20 22:32N 40°38' W 074°08'0 0.0
2017-Mar-20 21:33N 40°38' W 074°08'0 0.0
2017-Mar-20 20:33N 40°38' W 074°08'0 0.0
2017-Mar-20 16:32N 40°38' W 074°08'0 0.0
2017-Mar-20 15:31N 40°38' W 074°08'0 0.0
2017-Mar-20 14:32N 40°38' W 074°08'4 3.6
2017-Mar-20 13:33N 40°40' W 074°03'4 3.4
2017-Mar-20 12:31N 40°38' W 074°08'0 0.0
2017-Mar-20 11:32N 40°38' W 074°08'0 0.0
2017-Mar-20 10:31N 40°38' W 074°08'0 0.0
2017-Mar-20 09:33N 40°38' W 074°08'0 0.0
2017-Mar-20 08:33N 40°38' W 074°08'0 0.0
2017-Mar-20 07:32N 40°38' W 074°08'0 0.0
2017-Mar-20 06:33N 40°38' W 074°08'3 2.7
2017-Mar-20 05:33N 40°41' W 074°08'3 2.5
2017-Mar-20 04:33N 40°39' W 074°08'0 0.2
2017-Mar-20 03:33N 40°38' W 074°08'0 0.0
2017-Mar-20 02:32N 40°38' W 074°08'0 0.0
2017-Mar-20 01:33N 40°38' W 074°08'0 0.0
2017-Mar-20 00:17N 40°38' W 074°08'0 0.0
2017-Mar-19 23:33N 40°38' W 074°08'3 3.1
2017-Mar-19 22:33N 40°38' W 074°04'0 0.4
2017-Mar-19 21:33N 40°37' W 074°04'0 0.2
2017-Mar-19 20:33N 40°37' W 074°03'3 2.6
2017-Mar-19 19:33N 40°40' W 074°04'0 0.0
2017-Mar-19 18:33N 40°40' W 074°04'1 0.7
2017-Mar-19 17:33N 40°39' W 074°05'1 1.4
2017-Mar-19 16:33N 40°39' W 074°03'5 4.7
2017-Mar-19 15:33N 40°41' W 074°09'3 0.5
2017-Mar-19 10:33N 40°38' W 074°08'3 2.6
2017-Mar-19 09:33N 40°41' W 074°08'0 0.3
2017-Mar-19 08:33N 40°41' W 074°09'3 2.7
2017-Mar-19 07:33N 40°39' W 074°06'3 2.5
2017-Mar-19 06:33N 40°41' W 074°04'4 3.6
2017-Mar-19 05:33N 40°38' W 074°08'5 1.6
2017-Mar-19 02:24N 40°35' W 074°13'4 5.3
2017-Mar-19 01:34N 40°39' W 074°10'3 3.0
2017-Mar-19 00:33N 40°42' W 074°08'3 3.1
2017-Mar-18 23:32N 40°38' W 074°08'0 0.0
2017-Mar-18 22:33N 40°38' W 074°08'0 0.0
2017-Mar-18 21:30N 40°38' W 074°08'2 1.7
2017-Mar-18 20:33N 40°39' W 074°10'1 0.8
2017-Mar-18 19:32N 40°39' W 074°09'1 0.5
2017-Mar-18 18:04N 40°38' W 074°08'0 0.0
2017-Mar-18 17:31N 40°38' W 074°08'0 0.0
2017-Mar-18 16:32N 40°38' W 074°08'0 0.0
2017-Mar-18 15:33N 40°38' W 074°08'0 0.1
2017-Mar-18 14:31N 40°38' W 074°08'0 0.0
2017-Mar-18 13:33N 40°38' W 074°08'0 0.0
2017-Mar-18 12:33N 40°38' W 074°08'0 0.0
2017-Mar-18 11:33N 40°38' W 074°08'0 0.0
2017-Mar-18 10:33N 40°38' W 074°08'0 0.0
2017-Mar-18 09:33N 40°38' W 074°08'0 0.0
2017-Mar-18 08:33N 40°38' W 074°08'0 0.0
2017-Mar-18 07:33N 40°38' W 074°08'0 0.0
2017-Mar-18 06:22N 40°38' W 074°08'0 0.0
2017-Mar-18 05:33N 40°38' W 074°08'0 0.0
2017-Mar-18 04:33N 40°38' W 074°08'0 0.0
2017-Mar-18 03:17N 40°38' W 074°08'0 0.0
2017-Mar-18 02:34N 40°38' W 074°08'1 1.3
2017-Mar-18 01:33N 40°40' W 074°09'5 4.6
2017-Mar-18 00:33N 40°38' W 074°03'4 1.6
2017-Mar-17 22:15N 40°38' W 074°08'0 0.0
2017-Mar-17 19:24N 40°38' W 074°08'0 0.0
2017-Mar-17 18:33N 40°38' W 074°08'0 0.0
2017-Mar-17 16:27N 40°38' W 074°08'0 0.0
2017-Mar-17 15:33N 40°38' W 074°08'0 0.0
2017-Mar-17 14:33N 40°38' W 074°08'0 0.0
2017-Mar-17 13:24N 40°38' W 074°08'0 0.0
2017-Mar-17 12:30N 40°38' W 074°08'1 1.1
2017-Mar-17 11:33N 40°39' W 074°09'2 1.9
2017-Mar-17 10:33N 40°41' W 074°09'2 2.4
2017-Mar-17 09:33N 40°39' W 074°09'1 0.6
2017-Mar-17 08:30N 40°38' W 074°08'0 0.0
2017-Mar-17 07:33N 40°38' W 074°08'0 0.0
2017-Mar-17 06:27N 40°38' W 074°08'0 0.0
2017-Mar-17 05:33N 40°38' W 074°08'0 0.0
2017-Mar-17 04:30N 40°38' W 074°08'3 3.1
2017-Mar-17 03:33N 40°38' W 074°12'1 0.6
2017-Mar-17 02:31N 40°38' W 074°12'3 3.2
2017-Mar-17 01:29N 40°38' W 074°08'0 0.0
2017-Mar-17 00:26N 40°38' W 074°08'0 0.0
2017-Mar-16 23:26N 40°38' W 074°08'0 0.0
2017-Mar-16 22:32N 40°38' W 074°08'0 0.0
2017-Mar-16 21:29N 40°38' W 074°08'0 0.0
2017-Mar-16 20:26N 40°38' W 074°08'0 0.0
2017-Mar-16 19:26N 40°38' W 074°08'0 0.0
2017-Mar-16 18:32N 40°38' W 074°08'0 0.0
2017-Mar-16 17:32N 40°38' W 074°08'0 0.0
2017-Mar-16 16:32N 40°38' W 074°08'0 0.0
2017-Mar-16 15:28N 40°38' W 074°08'0 0.0
2017-Mar-16 14:31N 40°38' W 074°08'0 0.0
2017-Mar-16 13:31N 40°38' W 074°08'1 0.8
2017-Mar-16 12:33N 40°39' W 074°09'3 2.5
2017-Mar-16 11:30N 40°38' W 074°12'3 1.1
2017-Mar-16 08:33N 40°38' W 074°08'0 0.0
2017-Mar-16 07:33N 40°38' W 074°08'0 0.0
2017-Mar-16 06:33N 40°38' W 074°08'0 0.0
2017-Mar-16 05:33N 40°38' W 074°08'0 0.0
2017-Mar-16 04:33N 40°38' W 074°08'0 0.0
2017-Mar-16 03:30N 40°38' W 074°08'4 4.3
2017-Mar-16 02:33N 40°40' W 074°03'4 1.8
2017-Mar-16 00:21N 40°38' W 074°08'0 0.0
2017-Mar-15 23:27N 40°38' W 074°08'0 0.0
2017-Mar-15 22:30N 40°38' W 074°08'0 0.0
2017-Mar-15 21:15N 40°38' W 074°08'0 0.0
2017-Mar-15 17:30N 40°38' W 074°08'0 0.0
2017-Mar-15 16:14N 40°38' W 074°08'0 0.0
2017-Mar-15 00:14N 40°38' W 074°08'0 0.0
2017-Mar-14 23:29N 40°38' W 074°08'0 0.0
2017-Mar-14 22:32N 40°38' W 074°08'0 0.0
2017-Mar-14 21:32N 40°38' W 074°08'0 0.0
2017-Mar-14 20:26N 40°38' W 074°08'0 0.0
2017-Mar-14 19:32N 40°38' W 074°08'0 0.0
2017-Mar-14 18:26N 40°38' W 074°08'0 0.0
2017-Mar-14 17:20N 40°38' W 074°08'0 0.0
2017-Mar-14 16:29N 40°38' W 074°08'0 0.0
2017-Mar-14 14:29N 40°38' W 074°08'0 0.0
2017-Mar-14 12:29N 40°38' W 074°08'0 0.0
2017-Mar-14 11:25N 40°38' W 074°08'0 0.0
2017-Mar-14 10:28N 40°38' W 074°08'0 0.0
2017-Mar-14 09:31N 40°38' W 074°08'0 0.0
2017-Mar-14 08:19N 40°38' W 074°08'0 0.0
2017-Mar-14 07:28N 40°38' W 074°08'0 0.0
2017-Mar-14 06:31N 40°38' W 074°08'  

Dump ship's entire track history